Time;durP1;ratioP1;P1;durP2;ratioP2;P2;SDS_P1;SDS_P2;PMS_P1;PMS_P2;Temp;Humidity;BMP_temperature;BMP_pressure;BME280_temperature;BME280_humidity;BME280_pressure;Samples;Min_cycle;Max_cycle;Signal;HPM_P1;HPM_P2
2020/12/16 00:02:03;;;;;;;10.25;6.93;;;3.20;91.50;;;;;;4955606;29;19906;-78
2020/12/16 00:04:28;;;;;;;;;;;3.20;91.40;;;;;;4958312;28;20054;-78
2020/12/16 00:06:54;;;;;;;11.57;6.85;;;3.20;91.40;;;;;;4958961;28;19906;-79
2020/12/16 00:09:20;;;;;;;;;;;3.20;91.40;;;;;;4956629;28;20031;-78
2020/12/16 00:11:45;;;;;;;9.48;6.47;;;3.20;91.40;;;;;;4955008;28;19906;-78
2020/12/16 00:14:11;;;;;;;;;;;3.20;91.40;;;;;;4955264;28;20030;-77
2020/12/16 00:16:36;;;;;;;11.50;7.20;;;3.20;91.30;;;;;;4955040;28;19906;-77
2020/12/16 00:19:02;;;;;;;;;;;3.20;91.40;;;;;;4955248;28;20067;-77
2020/12/16 00:21:28;;;;;;;10.27;6.60;;;3.20;91.40;;;;;;4953836;28;19906;-77
2020/12/16 00:23:53;;;;;;;;;;;3.20;91.40;;;;;;4954014;28;20030;-77
2020/12/16 00:26:19;;;;;;;10.27;6.50;;;3.20;91.40;;;;;;4955190;28;20444;-77
2020/12/16 00:28:45;;;;;;;;;;;3.20;91.40;;;;;;4970002;28;20037;-78
2020/12/16 00:31:14;;;;;;;10.05;6.65;;;3.20;91.40;;;;;;4955144;28;20288;-77
2020/12/16 00:33:40;;;;;;;10.13;6.82;;;3.20;91.30;;;;;;4954989;28;20050;-78
2020/12/16 00:36:05;;;;;;;;;;;3.20;91.30;;;;;;4970126;28;20500;-77
2020/12/16 00:38:31;;;;;;;9.98;6.20;;;3.20;91.30;;;;;;4953417;29;19914;-77
2020/12/16 00:40:57;;;;;;;;;;;3.20;91.30;;;;;;4953794;29;20023;-77
2020/12/16 00:43:22;;;;;;;14.13;7.72;;;3.20;91.20;;;;;;4953248;29;19910;-77
2020/12/16 00:45:48;;;;;;;;;;;3.20;91.20;;;;;;4969656;28;20040;-77
2020/12/16 00:48:14;;;;;;;10.90;6.90;;;3.20;91.20;;;;;;4953606;28;19993;-78
2020/12/16 00:50:39;;;;;;;;;;;3.20;91.20;;;;;;4955407;28;20031;-77
2020/12/16 00:53:05;;;;;;;9.27;6.68;;;3.20;91.20;;;;;;4955133;29;20391;-77
2020/12/16 00:55:30;;;;;;;;;;;3.20;91.20;;;;;;4954501;29;20520;-78
2020/12/16 00:57:58;;;;;;;12.55;8.10;;;3.20;91.20;;;;;;4955109;29;19933;-79
2020/12/16 01:00:24;;;;;;;12.07;6.97;;;3.20;91.20;;;;;;4955487;28;20090;-77
2020/12/16 01:02:49;;;;;;;;;;;3.30;91.20;;;;;;4955042;29;20035;-78
2020/12/16 01:05:19;;;;;;;9.23;6.38;;;3.20;91.10;;;;;;4969691;28;19962;-77
2020/12/16 01:07:45;;;;;;;10.38;6.80;;;3.20;91.10;;;;;;4955272;28;20081;-77
2020/12/16 01:10:12;;;;;;;;;;;3.20;91.30;;;;;;4956002;29;20563;-77
2020/12/16 01:12:41;;;;;;;10.85;6.68;;;3.20;91.00;;;;;;4968905;28;20022;-77
2020/12/16 01:15:18;;;;;;;10.90;7.18;;;3.20;91.00;;;;;;4954062;28;20035;-77
2020/12/16 01:17:45;;;;;;;12.63;7.65;;;3.30;91.00;;;;;;4954660;28;20511;-77
2020/12/16 01:20:12;;;;;;;9.63;6.82;;;3.20;91.00;;;;;;4955342;28;20360;-78
2020/12/16 01:22:42;;;;;;;9.63;6.43;;;3.20;91.00;;;;;;4954625;28;20082;-78
2020/12/16 01:25:09;;;;;;;9.65;6.65;;;3.20;91.00;;;;;;4955198;28;20128;-77
2020/12/16 01:27:36;;;;;;;10.50;7.35;;;3.30;91.00;;;;;;4953044;29;20027;-79
2020/12/16 01:30:07;;;;;;;10.27;6.53;;;3.30;91.00;;;;;;4954413;28;20031;-76
2020/12/16 01:32:36;;;;;;;10.73;6.53;;;3.30;91.10;;;;;;4954075;29;20643;-77
2020/12/16 01:35:04;;;;;;;10.15;6.68;;;3.20;91.00;;;;;;4951564;28;20114;-77
2020/12/16 01:37:30;;;;;;;11.82;7.13;;;3.20;91.00;;;;;;4954106;28;20054;-77
2020/12/16 01:39:55;;;;;;;;;;;3.20;91.00;;;;;;4953165;29;20035;-77
2020/12/16 01:42:21;;;;;;;12.18;7.20;;;3.20;91.00;;;;;;4953760;29;20339;-77
2020/12/16 01:44:46;;;;;;;;;;;3.20;91.10;;;;;;4953447;28;20032;-78
2020/12/16 01:47:12;;;;;;;10.35;7.20;;;3.20;91.20;;;;;;4953967;28;19914;-77
2020/12/16 01:49:37;;;;;;;;;;;3.20;91.20;;;;;;4953983;29;20035;-78
2020/12/16 01:52:06;;;;;;;10.65;7.13;;;3.20;91.10;;;;;;4953578;29;20398;-77
2020/12/16 01:54:37;;;;;;;10.77;6.95;;;3.20;91.10;;;;;;4953170;28;20062;-77
2020/12/16 01:57:04;;;;;;;12.32;8.38;;;3.20;91.10;;;;;;4967991;28;20034;-79
2020/12/16 01:59:35;;;;;;;10.68;6.75;;;3.20;91.00;;;;;;4968011;28;20043;-77
2020/12/16 02:02:03;;;;;;;11.50;7.53;;;3.30;91.00;;;;;;4967921;28;20039;-77
2020/12/16 02:04:34;;;;;;;11.05;7.82;;;3.20;91.00;;;;;;4952767;28;20035;-77
2020/12/16 02:07:05;;;;;;;11.63;7.40;;;3.20;91.10;;;;;;4967868;28;20116;-77
2020/12/16 02:09:39;;;;;;;11.02;7.57;;;3.30;91.10;;;;;;4952631;28;20079;-77
2020/12/16 02:12:44;;;;;;;13.10;8.65;;;3.30;91.10;;;;;;4952813;28;20038;-77
2020/12/16 02:15:10;;;;;;;13.40;8.20;;;3.30;91.10;;;;;;4912002;29;20457;-76
2020/12/16 02:17:36;;;;;;;11.98;8.18;;;3.30;91.10;;;;;;4911471;29;20091;-78
2020/12/16 02:20:04;;;;;;;;;;;3.20;91.10;;;;;;4936725;28;20130;-78
2020/12/16 02:22:30;;;;;;;10.98;7.78;;;3.30;91.20;;;;;;4950963;28;19913;-76
2020/12/16 02:24:57;;;;;;;13.80;8.27;;;3.20;91.10;;;;;;4953093;28;20030;-78
2020/12/16 02:27:22;;;;;;;13.75;8.02;;;3.30;91.10;;;;;;4967827;28;20031;-78
2020/12/16 02:29:48;;;;;;;;;;;3.20;91.00;;;;;;4953052;28;20042;-77
2020/12/16 02:32:14;;;;;;;12.57;7.82;;;3.20;91.00;;;;;;4951681;29;20517;-77
2020/12/16 02:34:40;;;;;;;;;;;3.30;91.10;;;;;;4968393;28;20089;-76
2020/12/16 02:37:05;;;;;;;11.68;7.57;;;3.20;91.00;;;;;;4952041;28;19946;-77
2020/12/16 02:39:31;;;;;;;;;;;3.20;91.00;;;;;;4953514;28;20035;-77
2020/12/16 02:42:05;;;;;;;16.35;10.07;;;3.20;91.10;;;;;;4953520;28;19910;-77
2020/12/16 02:44:31;;;;;;;14.15;8.88;;;3.30;91.10;;;;;;4954018;28;20071;-77
2020/12/16 02:46:57;;;;;;;;;;;3.20;91.10;;;;;;4957098;28;20498;-78
2020/12/16 02:49:23;;;;;;;16.73;9.60;;;3.30;91.20;;;;;;4953041;28;19917;-78
2020/12/16 02:51:48;;;;;;;;;;;3.30;91.20;;;;;;4955998;28;20035;-76
2020/12/16 02:54:14;;;;;;;17.27;10.05;;;3.20;91.20;;;;;;4954127;29;20064;-78
2020/12/16 02:56:40;;;;;;;;;;;3.20;91.20;;;;;;4951066;29;20488;-77
2020/12/16 02:59:05;;;;;;;18.58;10.63;;;3.30;91.20;;;;;;4952419;28;20365;-77
2020/12/16 03:01:31;;;;;;;;;;;3.30;91.20;;;;;;4951386;29;20016;-78
2020/12/16 03:03:57;;;;;;;17.60;10.00;;;3.20;91.20;;;;;;4952170;29;20725;-77
2020/12/16 03:06:22;;;;;;;;;;;3.30;91.20;;;;;;4951271;29;20130;-77
2020/12/16 03:08:48;;;;;;;16.17;9.65;;;3.30;91.20;;;;;;4966598;28;20030;-77
2020/12/16 03:11:17;;;;;;;;;;;3.30;91.10;;;;;;4951786;29;20176;-78
2020/12/16 03:13:43;;;;;;;19.60;11.55;;;3.30;91.10;;;;;;4950134;29;19949;-77
2020/12/16 03:16:08;;;;;;;;;;;3.30;91.10;;;;;;4951140;29;20055;-78
2020/12/16 03:18:34;;;;;;;23.02;11.18;;;3.30;91.10;;;;;;4950780;29;19922;-78
2020/12/16 03:21:00;;;;;;;;;;;3.30;91.20;;;;;;4952672;28;20031;-77
2020/12/16 03:23:25;;;;;;;19.75;11.80;;;3.30;91.30;;;;;;4952429;29;19918;-77
2020/12/16 03:25:51;;;;;;;;;;;3.30;91.30;;;;;;4952533;29;20468;-77
2020/12/16 03:28:16;;;;;;;19.95;11.55;;;3.30;91.30;;;;;;4951528;29;20439;-77
2020/12/16 03:30:42;;;;;;;;;;;3.30;91.30;;;;;;4952242;29;20031;-78
2020/12/16 03:33:07;;;;;;;25.05;13.00;;;3.30;91.40;;;;;;4952119;29;20379;-78
2020/12/16 03:35:33;;;;;;;;;;;3.40;91.40;;;;;;4950763;29;20031;-77
2020/12/16 03:37:59;;;;;;;20.40;12.00;;;3.30;91.50;;;;;;4951780;28;19918;-77
2020/12/16 03:40:24;;;;;;;;;;;3.30;91.50;;;;;;4952486;29;20027;-76
2020/12/16 03:42:50;;;;;;;24.70;13.23;;;3.30;91.50;;;;;;4950028;29;20501;-77
2020/12/16 03:45:15;;;;;;;;;;;3.30;91.50;;;;;;4952055;29;20027;-77
2020/12/16 03:47:41;;;;;;;20.23;12.00;;;3.30;91.50;;;;;;4951971;28;19954;-77
2020/12/16 03:50:06;;;;;;;;;;;3.30;91.60;;;;;;4951018;29;20031;-76
2020/12/16 03:52:32;;;;;;;22.95;12.43;;;3.30;91.60;;;;;;4951762;28;19911;-77
2020/12/16 03:54:57;;;;;;;;;;;3.30;91.70;;;;;;4966869;28;20566;-76
2020/12/16 03:57:23;;;;;;;23.50;13.48;;;3.30;91.70;;;;;;4951580;28;19906;-77
2020/12/16 03:59:48;;;;;;;;;;;3.30;91.80;;;;;;4955321;29;20035;-77
2020/12/16 04:02:14;;;;;;;25.27;13.77;;;3.30;91.80;;;;;;4955688;28;20323;-77
2020/12/16 04:04:39;;;;;;;;;;;3.30;91.80;;;;;;4970147;28;20034;-77
2020/12/16 04:07:05;;;;;;;27.67;14.15;;;3.30;92.00;;;;;;4955067;28;19914;-77
2020/12/16 04:09:31;;;;;;;;;;;3.30;92.00;;;;;;4970219;28;20027;-77
2020/12/16 04:11:56;;;;;;;26.92;13.02;;;3.30;92.00;;;;;;4955312;28;19910;-78
2020/12/16 04:14:22;;;;;;;;;;;3.30;92.00;;;;;;4969973;28;20034;-77
2020/12/16 04:16:47;;;;;;;23.83;13.25;;;3.30;92.10;;;;;;4954753;28;19910;-77
2020/12/16 04:19:13;;;;;;;;;;;3.30;92.10;;;;;;4955328;29;20046;-77
2020/12/16 04:21:39;;;;;;;25.83;13.38;;;3.30;92.10;;;;;;4969988;28;20442;-77
2020/12/16 04:24:04;;;;;;;;;;;3.30;92.20;;;;;;4955599;29;20433;-77
2020/12/16 04:26:30;;;;;;;26.17;14.43;;;3.30;92.20;;;;;;4969625;28;19964;-77
2020/12/16 04:28:55;;;;;;;;;;;3.30;92.20;;;;;;4955351;29;20130;-76
2020/12/16 04:31:21;;;;;;;29.92;15.77;;;3.30;92.30;;;;;;4954951;28;20009;-77
2020/12/16 04:33:47;;;;;;;;;;;3.30;92.40;;;;;;4955750;29;20062;-77
2020/12/16 04:36:12;;;;;;;26.92;14.75;;;3.30;92.50;;;;;;4955113;28;19961;-77
2020/12/16 04:38:38;;;;;;;;;;;3.20;92.50;;;;;;4955031;29;20035;-77
2020/12/16 04:41:07;;;;;;;31.27;14.77;;;3.20;92.60;;;;;;4954787;28;19910;-77
2020/12/16 04:43:36;;;;;;;26.60;15.23;;;3.20;92.60;;;;;;4953646;29;20038;-76
2020/12/16 04:46:03;;;;;;;28.98;15.23;;;3.20;92.60;;;;;;4954360;29;20030;-77
2020/12/16 04:48:28;;;;;;;28.55;15.80;;;3.20;92.60;;;;;;4953687;29;20058;-77
2020/12/16 04:50:54;;;;;;;;;;;3.20;92.70;;;;;;4955001;29;20066;-78
2020/12/16 04:53:20;;;;;;;29.70;14.80;;;3.20;92.80;;;;;;4955310;28;19918;-77
2020/12/16 04:55:47;;;;;;;28.25;14.95;;;3.10;92.90;;;;;;4954804;28;20047;-77
2020/12/16 04:58:12;;;;;;;32.42;15.60;;;3.10;92.90;;;;;;4954169;29;20519;-77
2020/12/16 05:00:38;;;;;;;;;;;3.10;93.00;;;;;;4955948;28;20058;-77
2020/12/16 05:03:08;;;;;;;31.02;16.45;;;3.10;93.10;;;;;;4953447;29;19916;-77
2020/12/16 05:05:35;;;;;;;29.35;15.57;;;3.10;93.10;;;;;;4955465;28;20039;-76
2020/12/16 05:08:11;;;;;;;26.58;15.45;;;3.10;93.10;;;;;;4954575;28;20031;-77
2020/12/16 05:10:42;;;;;;;;;;;3.10;93.10;;;;;;4955057;28;20063;-77
2020/12/16 05:13:08;;;;;;;31.67;14.85;;;3.10;93.20;;;;;;4953500;28;20333;-77
2020/12/16 05:15:36;;;;;;;31.90;16.70;;;3.10;93.30;;;;;;4954848;29;20126;-78
2020/12/16 05:18:20;;;;;;;32.03;16.15;;;3.10;93.30;;;;;;4955069;28;20054;-76
2020/12/16 05:20:52;;;;;;;33.00;16.95;;;3.10;93.30;;;;;;4955097;29;20440;-77
2020/12/16 05:23:23;;;;;;;29.33;15.40;;;3.10;93.40;;;;;;4957734;28;20027;-78
2020/12/16 05:26:09;;;;;;;31.58;16.85;;;3.10;93.40;;;;;;4954193;29;20027;-77
2020/12/16 05:28:55;;;;;;;31.42;16.27;;;3.00;93.50;;;;;;4957913;28;20435;-77
2020/12/16 05:31:20;;;;;;;37.75;15.45;;;3.00;93.50;;;;;;4973598;28;20039;-78
2020/12/16 05:33:47;;;;;;;;;;;3.00;93.60;;;;;;4959310;29;20033;-78
2020/12/16 05:36:26;;;;;;;30.80;15.15;;;3.00;93.60;;;;;;4959512;28;19910;-78
2020/12/16 05:38:52;;;;;;;30.52;15.40;;;3.00;93.60;;;;;;4955473;29;20043;-77
2020/12/16 05:41:28;;;;;;;29.98;16.75;;;3.00;93.70;;;;;;4953624;29;20027;-78
2020/12/16 05:44:13;;;;;;;33.05;15.88;;;3.00;93.70;;;;;;4953947;29;20031;-77
2020/12/16 05:46:39;;;;;;;30.58;16.48;;;3.00;93.80;;;;;;4947424;28;20413;-76
2020/12/16 05:49:19;;;;;;;;;;;3.00;93.90;;;;;;4954908;29;20038;-77
2020/12/16 05:51:54;;;;;;;31.45;16.27;;;3.00;93.90;;;;;;4959321;28;19922;-77
2020/12/16 05:54:20;;;;;;;32.95;17.23;;;2.90;94.00;;;;;;4935295;29;20521;-77
2020/12/16 05:56:46;;;;;;;;;;;2.90;94.00;;;;;;4950860;29;20028;-77
2020/12/16 05:59:11;;;;;;;34.08;16.73;;;2.90;94.10;;;;;;4950868;29;19926;-77
2020/12/16 06:01:37;;;;;;;;;;;3.00;94.10;;;;;;4936057;29;20024;-77
2020/12/16 06:04:03;;;;;;;40.58;19.63;;;2.90;94.10;;;;;;4934930;29;19910;-77
2020/12/16 06:06:29;;;;;;;;;;;3.00;94.20;;;;;;4940440;29;20046;-76
2020/12/16 06:08:58;;;;;;;31.33;15.65;;;2.90;94.20;;;;;;4941059;29;19955;-77
2020/12/16 06:11:30;;;;;;;33.95;17.05;;;2.90;94.30;;;;;;4943106;29;20032;-77
2020/12/16 06:14:05;;;;;;;36.65;17.63;;;2.90;94.30;;;;;;4942008;29;20023;-77
2020/12/16 06:16:45;;;;;;;32.25;16.58;;;3.00;94.40;;;;;;4941882;29;20043;-77
2020/12/16 06:19:24;;;;;;;36.58;18.17;;;3.00;94.40;;;;;;4940721;29;20563;-77
2020/12/16 06:21:55;;;;;;;34.88;16.90;;;3.00;94.40;;;;;;4943232;29;20038;-77
2020/12/16 06:24:28;;;;;;;32.45;17.42;;;3.00;94.40;;;;;;4936583;29;20532;-77
2020/12/16 06:27:02;;;;;;;36.17;15.73;;;3.00;94.40;;;;;;4934500;29;20027;-77
2020/12/16 06:29:29;;;;;;;31.48;15.60;;;3.00;94.40;;;;;;4950617;29;20066;-77
2020/12/16 06:31:56;;;;;;;33.97;16.75;;;3.00;94.50;;;;;;4933475;29;20051;-77
2020/12/16 06:34:22;;;;;;;33.85;16.10;;;3.00;94.50;;;;;;4942891;29;20062;-76
2020/12/16 06:36:48;;;;;;;34.20;16.50;;;3.00;94.50;;;;;;4942978;29;20062;-76
2020/12/16 06:39:22;;;;;;;;;;;3.10;94.50;;;;;;4943470;29;20116;-78
2020/12/16 06:41:57;;;;;;;35.83;16.50;;;3.00;94.50;;;;;;4964753;28;19912;-77
2020/12/16 06:44:23;;;;;;;33.65;17.17;;;3.10;94.50;;;;;;4955312;28;20062;-77
2020/12/16 06:46:52;;;;;;;31.60;15.35;;;3.10;94.50;;;;;;4953905;28;20488;-78
2020/12/16 06:49:23;;;;;;;45.00;23.05;;;3.10;94.50;;;;;;4953087;28;20031;-77
2020/12/16 06:52:03;;;;;;;77.45;41.03;;;3.10;94.50;;;;;;4953937;29;20050;-77
2020/12/16 06:54:38;;;;;;;67.28;35.22;;;3.10;94.60;;;;;;4935381;29;20062;-78
2020/12/16 06:57:12;;;;;;;53.10;31.60;;;3.10;94.60;;;;;;4937656;29;20402;-78
2020/12/16 07:00:00;;;;;;;37.15;21.02;;;3.10;94.60;;;;;;4936574;29;20051;-76
2020/12/16 07:02:28;;;;;;;37.70;17.45;;;3.10;94.60;;;;;;4935546;29;20532;-76
2020/12/16 07:04:56;;;;;;;39.00;18.77;;;3.10;94.60;;;;;;4936230;29;20075;-77
2020/12/16 07:07:49;;;;;;;40.63;22.38;;;3.10;94.70;;;;;;4932991;29;20031;-76
2020/12/16 07:10:33;;;;;;;39.03;19.55;;;3.10;94.70;;;;;;4932482;29;20043;-78
2020/12/16 07:13:30;;;;;;;41.72;20.73;;;3.10;94.70;;;;;;4936244;29;20032;-78
2020/12/16 07:15:58;;;;;;;42.33;19.33;;;3.10;94.80;;;;;;4935623;29;20068;-77
2020/12/16 07:18:59;;;;;;;46.05;23.35;;;3.10;94.80;;;;;;4934513;29;20032;-78
2020/12/16 07:21:28;;;;;;;44.90;22.05;;;3.10;94.80;;;;;;4876952;29;20112;-79
2020/12/16 07:24:12;;;;;;;45.30;21.80;;;3.20;94.90;;;;;;4926679;29;20082;-78
2020/12/16 07:26:43;;;;;;;48.63;23.38;;;3.20;94.90;;;;;;4934391;29;20028;-78
2020/12/16 07:29:29;;;;;;;46.58;23.23;;;3.20;94.90;;;;;;4935543;29;20119;-80
2020/12/16 07:32:12;;;;;;;55.15;29.80;;;3.20;94.90;;;;;;4936303;29;20027;-78
2020/12/16 07:34:46;;;;;;;66.05;34.10;;;3.30;94.90;;;;;;4938762;29;20481;-77
2020/12/16 07:37:13;;;;;;;45.25;24.90;;;3.30;94.80;;;;;;4944426;29;20031;-78
2020/12/16 07:39:53;;;;;;;44.42;22.58;;;3.30;94.80;;;;;;4956311;29;20051;-77
2020/12/16 07:42:32;;;;;;;63.47;32.13;;;3.40;94.80;;;;;;4958658;29;20031;-78
2020/12/16 07:45:05;;;;;;;59.97;29.33;;;3.40;94.70;;;;;;4957953;29;20527;-78
2020/12/16 07:47:31;;;;;;;52.22;27.10;;;3.40;94.70;;;;;;4974793;28;20043;-77
2020/12/16 07:49:56;;;;;;;;;;;3.30;94.70;;;;;;4957206;29;20031;-77
2020/12/16 07:52:24;;;;;;;43.10;21.48;;;3.40;95.00;;;;;;4955650;29;19911;-77
2020/12/16 07:54:50;;;;;;;45.03;21.40;;;3.40;94.70;;;;;;4955977;28;20046;-77
2020/12/16 07:57:15;;;;;;;;;;;3.40;94.70;;;;;;4958034;29;20035;-77
2020/12/16 07:59:41;;;;;;;49.17;23.88;;;3.40;94.70;;;;;;4956044;28;20363;-77
2020/12/16 08:02:11;;;;;;;;;;;3.40;94.70;;;;;;4958184;29;20023;-78
2020/12/16 08:04:38;;;;;;;49.22;21.60;;;3.50;94.70;;;;;;4957059;28;19950;-77
2020/12/16 08:07:20;;;;;;;47.58;23.42;;;3.50;94.70;;;;;;4957853;28;20028;-77
2020/12/16 08:10:07;;;;;;;52.85;25.17;;;3.50;94.60;;;;;;4953330;28;20031;-81
2020/12/16 08:12:33;;;;;;;;;;;3.50;94.60;;;;;;4956903;29;20031;-79
2020/12/16 08:15:17;;;;;;;51.13;23.55;;;3.50;94.60;;;;;;4956309;28;19910;-78
2020/12/16 08:17:48;;;;;;;47.33;24.08;;;3.50;94.50;;;;;;4962209;29;20086;-78
2020/12/16 08:20:24;;;;;;;57.42;27.02;;;3.60;94.50;;;;;;4942729;29;20036;-77
2020/12/16 08:22:55;;;;;;;94.22;45.00;;;3.60;94.50;;;;;;4944391;29;20032;-79
2020/12/16 08:25:22;;;;;;;53.13;27.85;;;3.60;94.50;;;;;;4960890;29;20052;-78
2020/12/16 08:27:50;;;;;;;65.90;34.22;;;3.60;94.50;;;;;;4939493;29;20046;-79
2020/12/16 08:30:27;;;;;;;51.10;26.95;;;3.60;94.50;;;;;;4952456;29;20038;-78
2020/12/16 08:32:59;;;;;;;51.55;25.00;;;3.70;94.50;;;;;;4950942;29;20034;-77
2020/12/16 08:35:38;;;;;;;45.67;22.58;;;3.70;94.50;;;;;;4948528;29;20039;-79
2020/12/16 08:38:12;;;;;;;52.13;25.60;;;3.70;94.40;;;;;;4956746;29;20046;-79
2020/12/16 08:40:39;;;;;;;61.92;30.73;;;3.70;94.30;;;;;;4969482;28;20038;-78
2020/12/16 08:43:27;;;;;;;53.60;24.95;;;3.70;94.30;;;;;;4956064;28;20042;-78
2020/12/16 08:46:15;;;;;;;55.28;23.50;;;3.70;94.30;;;;;;4969784;28;20477;-78
2020/12/16 08:48:46;;;;;;;58.30;25.85;;;3.70;94.30;;;;;;4955804;28;20031;-79
2020/12/16 08:51:16;;;;;;;105.35;51.83;;;3.70;94.20;;;;;;4955744;29;20038;-78
2020/12/16 08:54:00;;;;;;;77.72;37.53;;;3.70;94.20;;;;;;4969913;28;20042;-78
2020/12/16 08:56:27;;;;;;;72.18;37.22;;;3.80;94.20;;;;;;4956014;28;20047;-78
2020/12/16 08:59:08;;;;;;;51.60;26.60;;;3.80;94.30;;;;;;4956930;29;20042;-79
2020/12/16 09:01:34;;;;;;;56.28;26.63;;;3.80;94.30;;;;;;4944816;29;20031;-79
2020/12/16 09:04:00;;;;;;;60.22;28.75;;;3.70;94.20;;;;;;4947260;28;20579;-78
2020/12/16 09:06:25;;;;;;;;;;;3.80;94.30;;;;;;4958621;28;20038;-78
2020/12/16 09:08:51;;;;;;;72.45;32.45;;;3.70;94.30;;;;;;4958313;28;19910;-77
2020/12/16 09:11:21;;;;;;;57.80;25.98;;;3.70;94.30;;;;;;4950977;29;20038;-77
2020/12/16 09:13:56;;;;;;;58.47;28.15;;;3.70;94.40;;;;;;4954988;28;20039;-77
2020/12/16 09:16:24;;;;;;;58.05;25.27;;;3.70;94.40;;;;;;4969896;28;20027;-76
2020/12/16 09:18:50;;;;;;;56.28;24.88;;;3.70;94.40;;;;;;4968503;28;20141;-77
2020/12/16 09:21:28;;;;;;;67.78;27.65;;;3.80;94.40;;;;;;4951687;29;20028;-77
2020/12/16 09:23:54;;;;;;;58.63;26.85;;;3.80;94.40;;;;;;4956063;28;20038;-76
2020/12/16 09:26:19;;;;;;;;;;;3.80;94.40;;;;;;4968512;28;20106;-77
2020/12/16 09:28:45;;;;;;;61.92;26.35;;;3.90;94.30;;;;;;4967098;28;19913;-76
2020/12/16 09:31:17;;;;;;;;;;;3.80;94.30;;;;;;4968455;28;20043;-77
2020/12/16 09:33:57;;;;;;;56.95;25.88;;;3.90;94.40;;;;;;4967298;28;19911;-78
2020/12/16 09:36:25;;;;;;;42.85;20.48;;;3.90;94.30;;;;;;4955336;28;20022;-77
2020/12/16 09:38:59;;;;;;;60.60;31.67;;;3.90;94.20;;;;;;4954542;28;20686;-79
2020/12/16 09:41:25;;;;;;;49.20;24.27;;;3.90;94.10;;;;;;4955438;29;20039;-78
2020/12/16 09:43:51;;;;;;;45.17;21.65;;;4.00;94.10;;;;;;4968568;28;20027;-77
2020/12/16 09:46:18;;;;;;;;;;;4.10;94.10;;;;;;4955343;28;20028;-78
2020/12/16 09:48:46;;;;;;;56.20;27.08;;;4.10;93.80;;;;;;4971609;28;19910;-78
2020/12/16 09:51:17;;;;;;;62.35;33.38;;;4.10;93.70;;;;;;4953167;28;20035;-78
2020/12/16 09:53:43;;;;;;;48.53;25.50;;;4.00;93.70;;;;;;4953492;29;20039;-78
2020/12/16 09:56:25;;;;;;;52.35;25.45;;;4.10;93.90;;;;;;4952666;28;20061;-78
2020/12/16 09:58:51;;;;;;;38.28;19.20;;;4.10;93.80;;;;;;4940391;28;20054;-78
2020/12/16 10:01:17;;;;;;;40.65;20.20;;;4.20;93.80;;;;;;4934644;29;20039;-78
2020/12/16 10:03:43;;;;;;;40.58;19.65;;;4.20;93.60;;;;;;4934574;29;20031;-78
2020/12/16 10:06:12;;;;;;;;;;;4.20;93.50;;;;;;4935497;29;20083;-78
2020/12/16 10:08:39;;;;;;;40.40;20.27;;;4.20;93.60;;;;;;4934313;29;19910;-78
2020/12/16 10:11:09;;;;;;;40.28;19.83;;;4.10;93.40;;;;;;4934761;29;20027;-78
2020/12/16 10:13:34;;;;;;;39.00;19.95;;;4.20;93.60;;;;;;4935959;29;20067;-78
2020/12/16 10:16:00;;;;;;;;;;;4.20;93.50;;;;;;4934926;29;20059;-77
2020/12/16 10:18:25;;;;;;;36.38;21.27;;;4.20;93.50;;;;;;4934184;29;19923;-78
2020/12/16 10:20:51;;;;;;;;;;;4.20;93.40;;;;;;4934723;29;20039;-77
2020/12/16 10:23:16;;;;;;;34.67;19.00;;;4.20;93.10;;;;;;4933773;29;19950;-77
2020/12/16 10:25:42;;;;;;;;;;;4.20;93.10;;;;;;4948976;29;20027;-77
2020/12/16 10:28:10;;;;;;;26.95;14.45;;;4.30;93.10;;;;;;4940256;29;20082;-78
2020/12/16 10:30:36;;;;;;;31.88;16.40;;;4.20;93.10;;;;;;4953913;28;20034;-77
2020/12/16 10:33:02;;;;;;;33.10;17.35;;;4.20;93.20;;;;;;4953114;28;20038;-77
2020/12/16 10:35:28;;;;;;;;;;;4.20;93.20;;;;;;4951675;29;20034;-79
2020/12/16 10:37:53;;;;;;;39.05;18.88;;;4.20;93.30;;;;;;4954113;29;20402;-77
2020/12/16 10:40:19;;;;;;;;;;;4.20;93.30;;;;;;4943432;29;20027;-77
2020/12/16 10:42:45;;;;;;;28.77;15.88;;;4.20;93.20;;;;;;4932666;29;19918;-76
2020/12/16 10:45:10;;;;;;;;;;;4.20;93.20;;;;;;4943274;29;20116;-78
2020/12/16 10:47:36;;;;;;;28.83;14.63;;;4.20;93.20;;;;;;4949238;28;20287;-77
2020/12/16 10:50:03;;;;;;;;;;;4.20;93.30;;;;;;4941454;29;20086;-77
2020/12/16 10:52:29;;;;;;;35.28;18.92;;;4.20;93.10;;;;;;4964305;28;20443;-78
2020/12/16 10:54:55;;;;;;;32.42;18.25;;;4.20;93.20;;;;;;4947600;29;20074;-79
2020/12/16 10:57:20;;;;;;;;;;;4.20;93.30;;;;;;4936822;29;20035;-79
2020/12/16 10:59:47;;;;;;;30.80;17.63;;;4.30;93.40;;;;;;4942404;28;19941;-79
2020/12/16 11:02:13;;;;;;;36.95;19.20;;;4.20;93.40;;;;;;4936268;29;20048;-79
2020/12/16 11:04:39;;;;;;;35.20;19.17;;;4.30;93.40;;;;;;4935298;29;20039;-79
2020/12/16 11:07:04;;;;;;;;;;;4.30;93.30;;;;;;4936490;29;20023;-79
2020/12/16 11:09:30;;;;;;;46.35;19.92;;;4.30;93.50;;;;;;4939474;29;19910;-78
2020/12/16 11:11:56;;;;;;;;;;;4.30;93.50;;;;;;4938309;29;20028;-78
2020/12/16 11:14:25;;;;;;;46.65;23.73;;;4.30;93.60;;;;;;4950179;29;19918;-79
2020/12/16 11:16:51;;;;;;;49.92;24.60;;;4.30;93.30;;;;;;4946341;29;20032;-78
2020/12/16 11:19:17;;;;;;;;;;;4.30;93.30;;;;;;4943853;29;20042;-79
2020/12/16 11:21:45;;;;;;;34.58;19.15;;;4.30;93.30;;;;;;4947764;29;19919;-78
2020/12/16 11:24:12;;;;;;;30.75;17.08;;;4.30;93.30;;;;;;4961809;28;20036;-78
2020/12/16 11:26:49;;;;;;;82.03;38.65;;;4.30;93.40;;;;;;4973327;28;20024;-79
2020/12/16 11:29:15;;;;;;;;;;;4.30;93.30;;;;;;4966547;28;20055;-80
2020/12/16 11:31:46;;;;;;;60.95;30.02;;;4.30;93.30;;;;;;4959154;28;20275;-78
2020/12/16 11:34:14;;;;;;;45.53;23.98;;;4.30;93.30;;;;;;4958398;28;20035;-77
2020/12/16 11:36:42;;;;;;;35.85;21.80;;;4.30;93.30;;;;;;4970181;28;20039;-77
2020/12/16 11:39:08;;;;;;;41.35;23.67;;;4.30;93.40;;;;;;4962250;28;20518;-77
2020/12/16 11:41:35;;;;;;;40.45;23.02;;;4.30;93.40;;;;;;4936919;29;20583;-78
2020/12/16 11:44:01;;;;;;;37.25;20.15;;;4.20;93.40;;;;;;4937159;29;20519;-77
2020/12/16 11:46:28;;;;;;;34.67;19.38;;;4.20;93.50;;;;;;4952306;28;20032;-79
2020/12/16 11:48:55;;;;;;;34.40;19.05;;;4.20;93.70;;;;;;4938101;29;20485;-78
2020/12/16 11:51:21;;;;;;;43.22;25.55;;;4.20;93.70;;;;;;4973508;28;20151;-79
2020/12/16 11:53:46;;;;;;;;;;;4.30;93.70;;;;;;4952552;29;20516;-77
2020/12/16 11:56:12;;;;;;;28.85;17.80;;;4.30;93.50;;;;;;4936783;29;19915;-77
2020/12/16 11:58:38;;;;;;;;;;;4.30;93.40;;;;;;4937544;29;20134;-78
2020/12/16 12:01:04;;;;;;;31.88;19.70;;;4.30;93.30;;;;;;4952123;29;19906;-78
2020/12/16 12:03:29;;;;;;;;;;;4.30;93.20;;;;;;4939305;28;20620;-79
2020/12/16 12:05:55;;;;;;;35.83;20.73;;;4.20;93.20;;;;;;4934063;29;19914;-77
2020/12/16 12:08:20;;;;;;;;;;;4.30;93.40;;;;;;4936494;29;20039;-78
2020/12/16 12:10:46;;;;;;;49.70;29.50;;;4.30;93.30;;;;;;4935626;29;20246;-77
2020/12/16 12:13:11;;;;;;;;;;;4.30;93.30;;;;;;4934223;29;20093;-77
2020/12/16 12:15:37;;;;;;;39.25;22.42;;;4.30;93.20;;;;;;4968842;28;19906;-78
2020/12/16 12:18:02;;;;;;;;;;;4.40;93.10;;;;;;4954380;29;20129;-78
2020/12/16 12:20:28;;;;;;;39.15;22.00;;;4.40;93.10;;;;;;4969573;28;19962;-79
2020/12/16 12:22:53;;;;;;;;;;;4.40;93.00;;;;;;4969233;28;20039;-78
2020/12/16 12:25:19;;;;;;;51.60;31.70;;;4.50;92.80;;;;;;4954103;29;20767;-78
2020/12/16 12:27:45;;;;;;;;;;;4.50;92.60;;;;;;4946578;29;20445;-77
2020/12/16 12:30:10;;;;;;;56.15;32.40;;;4.50;92.40;;;;;;4936148;29;19946;-78
2020/12/16 12:32:36;;;;;;;;;;;4.50;92.50;;;;;;4936908;29;20512;-79
2020/12/16 12:35:02;;;;;;;56.13;32.65;;;4.50;92.30;;;;;;4935960;29;19910;-78
2020/12/16 12:37:27;;;;;;;;;;;4.50;92.20;;;;;;4961664;28;20035;-79
2020/12/16 12:39:53;;;;;;;45.47;24.80;;;4.50;92.30;;;;;;4949585;29;20384;-78
2020/12/16 12:42:18;;;;;;;;;;;4.50;92.20;;;;;;4953555;29;20070;-77
2020/12/16 12:44:44;;;;;;;66.22;34.90;;;4.50;92.30;;;;;;4954849;28;19910;-78
2020/12/16 12:47:09;;;;;;;;;;;4.50;92.20;;;;;;4954316;28;20106;-78
2020/12/16 12:49:35;;;;;;;31.50;19.02;;;4.50;92.20;;;;;;4965582;28;19922;-77
2020/12/16 12:52:00;;;;;;;;;;;4.50;92.00;;;;;;4958715;28;20050;-77
2020/12/16 12:54:26;;;;;;;33.53;19.90;;;4.50;92.10;;;;;;4953307;29;19922;-77
2020/12/16 12:56:52;;;;;;;;;;;4.50;92.20;;;;;;4969246;28;20035;-78
2020/12/16 12:59:17;;;;;;;22.75;13.40;;;4.50;92.20;;;;;;4954553;28;19926;-77
2020/12/16 13:01:43;;;;;;;;;;;4.50;92.20;;;;;;4968607;28;20027;-77
2020/12/16 13:04:08;;;;;;;27.92;17.52;;;4.50;92.20;;;;;;4958649;29;19914;-80
2020/12/16 13:06:34;;;;;;;;;;;4.50;92.30;;;;;;4952802;29;20507;-77
2020/12/16 13:09:00;;;;;;;37.80;25.00;;;4.50;92.30;;;;;;4953423;29;19918;-78
2020/12/16 13:11:26;;;;;;;;;;;4.50;92.30;;;;;;4953263;28;20036;-77
2020/12/16 13:13:52;;;;;;;39.85;24.23;;;4.50;92.10;;;;;;4935910;29;19917;-77
2020/12/16 13:16:17;;;;;;;;;;;4.40;92.20;;;;;;4936418;29;20035;-79